createdAt,value
2019-02-26T00:01:31.178Z,87.73
2019-02-26T00:05:33.536Z,88.62
2019-02-26T00:09:36.021Z,88.52
2019-02-26T00:13:38.393Z,88.69
2019-02-26T00:17:43.068Z,88.86
2019-02-26T00:21:45.653Z,89.15
2019-02-26T00:25:49.256Z,89.08
2019-02-26T00:29:53.126Z,89.04
2019-02-26T00:33:56.085Z,89.25
2019-02-26T00:37:58.727Z,89.21
2019-02-26T00:42:02.715Z,89.51
2019-02-26T00:46:06.206Z,89.54
2019-02-26T00:50:11.866Z,89.45
2019-02-26T00:54:14.316Z,89.78
2019-02-26T00:58:16.781Z,89.69
2019-02-26T01:02:19.332Z,89.63
2019-02-26T01:06:22.632Z,89.72
2019-02-26T01:10:25.946Z,89.84
2019-02-26T01:14:28.734Z,89.96
2019-02-26T01:18:31.103Z,89.97
2019-02-26T01:22:35.257Z,90.33
2019-02-26T01:26:37.671Z,90.21
2019-02-26T01:30:40.536Z,90.43
2019-02-26T01:34:44.887Z,90.33
2019-02-26T01:38:49.147Z,90.48
2019-02-26T01:42:52.889Z,90.74
2019-02-26T01:46:57.799Z,90.74
2019-02-26T01:51:01.261Z,90.73
2019-02-26T01:55:04.506Z,90.92
2019-02-26T01:59:08.324Z,90.72
2019-02-26T02:03:11.051Z,90.97
2019-02-26T02:07:13.435Z,90.87
2019-02-26T02:11:15.900Z,90.74
2019-02-26T02:15:21.641Z,90.93
2019-02-26T02:19:25.709Z,90.86
2019-02-26T02:23:30.378Z,91.18
2019-02-26T02:27:33.312Z,90.91
2019-02-26T02:31:40.240Z,90.99
2019-02-26T02:35:44.071Z,91.14
2019-02-26T02:39:48.468Z,90.98
2019-02-26T02:43:50.906Z,91.08
2019-02-26T02:47:57.778Z,90.88
2019-02-26T02:51:59.039Z,90.86
2019-02-26T02:56:03.557Z,90.90
2019-02-26T03:00:08.620Z,90.68
2019-02-26T03:04:14.751Z,90.66
2019-02-26T03:08:16.457Z,90.67
2019-02-26T03:12:19.842Z,90.30
2019-02-26T03:16:25.039Z,90.25
2019-02-26T03:20:28.714Z,90.31
2019-02-26T03:24:33.199Z,90.28
2019-02-26T03:28:37.530Z,90.35
2019-02-26T03:32:41.494Z,90.32
2019-02-26T03:36:45.747Z,90.32
2019-02-26T03:40:52.009Z,90.23
2019-02-26T03:44:53.902Z,90.31
2019-02-26T03:48:56.386Z,90.27
2019-02-26T03:52:58.764Z,90.04
2019-02-26T03:57:01.210Z,90.08
2019-02-26T04:01:07.218Z,90.19
2019-02-26T04:05:09.087Z,90.00
2019-02-26T04:09:13.909Z,89.76
2019-02-26T04:13:15.901Z,89.81
2019-02-26T04:17:23.206Z,89.81
2019-02-26T04:21:22.725Z,89.98
2019-02-26T04:25:36.541Z,89.93
2019-02-26T04:30:25.924Z,89.94
2019-02-26T04:34:51.435Z,89.91
2019-02-26T04:39:42.929Z,89.82
2019-02-26T04:44:30.791Z,89.95
2019-02-26T04:48:35.291Z,90.47
2019-02-26T04:52:40.496Z,90.41
2019-02-26T04:56:42.845Z,90.39
2019-02-26T05:00:46.052Z,90.28
2019-02-26T05:04:49.073Z,90.61
2019-02-26T05:08:52.598Z,90.70
2019-02-26T05:12:56.985Z,90.52
2019-02-26T05:17:00.177Z,90.62
2019-02-26T05:21:04.769Z,90.68
2019-02-26T05:25:10.375Z,90.61
2019-02-26T05:29:15.327Z,90.59
2019-02-26T05:33:18.479Z,90.31
2019-02-26T05:37:21.529Z,90.31
2019-02-26T05:41:23.888Z,90.29
2019-02-26T05:45:29.305Z,90.40
2019-02-26T05:49:34.481Z,90.61
2019-02-26T05:53:36.274Z,90.37
2019-02-26T05:57:38.805Z,90.55
2019-02-26T06:01:41.470Z,90.27
2019-02-26T06:05:45.936Z,90.02
2019-02-26T06:09:48.932Z,89.90
2019-02-26T06:13:51.956Z,89.93
2019-02-26T06:17:55.973Z,89.45
2019-02-26T06:21:58.681Z,89.04
2019-02-26T06:26:02.532Z,88.70
2019-02-26T06:30:07.501Z,88.38
2019-02-26T06:34:11.875Z,88.10
2019-02-26T06:38:13.472Z,87.94
2019-02-26T06:42:16.154Z,87.87
2019-02-26T06:46:18.499Z,87.86
2019-02-26T06:50:21.026Z,88.06
2019-02-26T06:54:26.683Z,87.88
2019-02-26T06:58:30.261Z,87.73
2019-02-26T07:02:32.635Z,87.58
2019-02-26T07:06:35.069Z,87.36
2019-02-26T07:10:37.375Z,87.08
2019-02-26T07:14:39.789Z,86.84
2019-02-26T07:18:42.180Z,87.01
2019-02-26T07:22:47.182Z,86.69
2019-02-26T07:26:48.803Z,86.28
2019-02-26T07:30:51.242Z,85.75
2019-02-26T07:34:53.532Z,85.75
2019-02-26T07:38:56.577Z,85.72
2019-02-26T07:42:58.947Z,85.58
2019-02-26T07:47:03.683Z,85.42
2019-02-26T07:51:05.275Z,85.08
2019-02-26T07:55:09.046Z,84.87
2019-02-26T07:59:12.588Z,84.71
2019-02-26T08:03:17.414Z,84.67
2019-02-26T08:07:21.500Z,84.42
2019-02-26T08:11:24.734Z,84.49
2019-02-26T08:15:27.774Z,84.48
2019-02-26T08:19:30.907Z,84.25
2019-02-26T08:23:33.235Z,84.31
2019-02-26T08:27:37.730Z,84.42
2019-02-26T08:31:42.519Z,84.36
2019-02-26T08:35:44.080Z,84.29
2019-02-26T08:39:46.410Z,84.17
2019-02-26T08:43:49.608Z,84.08
2019-02-26T08:47:52.904Z,84.09
2019-02-26T08:51:55.275Z,83.08
2019-02-26T08:55:58.878Z,83.18
2019-02-26T09:00:01.703Z,82.88
2019-02-26T09:04:06.423Z,83.08
2019-02-26T09:08:10.888Z,82.15
2019-02-26T09:12:15.134Z,82.46
2019-02-26T09:16:17.134Z,82.18
2019-02-26T09:20:19.652Z,82.04
2019-02-26T09:24:23.239Z,82.33
2019-02-26T09:28:27.074Z,82.43
2019-02-26T09:32:29.775Z,81.73
2019-02-26T09:36:32.124Z,81.21
2019-02-26T09:40:36.274Z,81.27
2019-02-26T09:44:38.615Z,80.42
2019-02-26T09:48:43.348Z,79.15
2019-02-26T09:52:45.730Z,78.58
2019-02-26T09:56:49.189Z,78.59
2019-02-26T10:00:53.956Z,78.31
2019-02-26T10:04:55.682Z,78.66
2019-02-26T10:08:59.825Z,78.64
2019-02-26T10:13:04.692Z,78.15
2019-02-26T10:17:06.579Z,78.18
2019-02-26T10:21:11.127Z,77.76
2019-02-26T10:25:15.219Z,76.55
2019-02-26T10:29:17.904Z,76.66
2019-02-26T10:33:21.160Z,76.58
2019-02-26T10:37:23.844Z,76.60
2019-02-26T10:41:26.129Z,75.00
2019-02-26T10:45:28.747Z,75.22
2019-02-26T10:49:31.155Z,75.07
2019-02-26T10:53:33.695Z,74.85
2019-02-26T10:57:38.372Z,75.12
2019-02-26T11:01:40.392Z,74.34
2019-02-26T11:05:44.974Z,75.25
2019-02-26T11:09:50.072Z,74.20
2019-02-26T11:13:53.788Z,74.47
2019-02-26T11:17:56.665Z,73.19
2019-02-26T11:22:01.018Z,73.14
2019-02-26T11:26:04.109Z,73.67
2019-02-26T11:30:10.160Z,73.24
2019-02-26T11:34:13.347Z,73.03
2019-02-26T11:38:17.157Z,72.71
2019-02-26T11:42:21.198Z,72.83
2019-02-26T11:46:33.561Z,72.03
2019-02-26T11:50:34.549Z,71.54
2019-02-26T11:54:38.052Z,70.45
2019-02-26T11:58:41.175Z,69.64
2019-02-26T12:02:43.669Z,70.41
2019-02-26T12:06:46.334Z,71.09
2019-02-26T12:10:48.818Z,71.73
2019-02-26T12:14:52.994Z,72.41
2019-02-26T12:18:58.676Z,72.89
2019-02-26T12:23:00.708Z,72.69
2019-02-26T12:27:03.030Z,72.73
2019-02-26T12:31:08.095Z,72.72
2019-02-26T12:35:12.063Z,72.22
2019-02-26T12:39:16.184Z,72.27
2019-02-26T12:43:19.263Z,72.13
2019-02-26T12:47:24.630Z,72.41
2019-02-26T12:51:29.501Z,72.89
2019-02-26T12:55:34.537Z,72.87
2019-02-26T12:59:35.494Z,73.12
2019-02-26T13:03:39.773Z,73.00
2019-02-26T13:07:42.145Z,72.68
2019-02-26T13:12:00.656Z,72.63
2019-02-26T13:15:48.708Z,73.48
2019-02-26T13:19:57.536Z,73.74
2019-02-26T13:23:59.138Z,73.86
2019-02-26T13:27:59.883Z,74.22
2019-02-26T13:32:02.280Z,74.49
2019-02-26T13:36:04.972Z,74.70
2019-02-26T13:40:10.479Z,74.96
2019-02-26T13:44:13.005Z,75.38
2019-02-26T13:48:16.420Z,75.13
2019-02-26T13:52:18.842Z,75.19
2019-02-26T13:56:21.366Z,74.82
2019-02-26T14:00:26.753Z,74.45
2019-02-26T14:04:28.083Z,74.34
2019-02-26T14:08:30.527Z,74.49
2019-02-26T14:12:32.883Z,74.92
2019-02-26T14:16:35.575Z,75.23
2019-02-26T14:20:38.073Z,75.37
2019-02-26T14:24:40.712Z,75.48
2019-02-26T14:28:43.067Z,75.59
2019-02-26T14:32:45.848Z,75.97
2019-02-26T14:36:48.218Z,76.19
2019-02-26T14:40:50.823Z,76.45
2019-02-26T14:44:53.197Z,76.93
2019-02-26T14:48:55.647Z,76.93
2019-02-26T14:52:57.998Z,77.24
2019-02-26T14:57:01.101Z,77.22
2019-02-26T15:01:03.942Z,76.82
2019-02-26T15:05:07.151Z,77.09
2019-02-26T15:09:09.736Z,76.94
2019-02-26T15:13:13.266Z,77.03
2019-02-26T15:17:15.644Z,77.36
2019-02-26T15:21:18.193Z,77.10
2019-02-26T15:25:24.481Z,77.05
2019-02-26T15:29:27.153Z,77.52
2019-02-26T15:33:29.493Z,78.15
2019-02-26T15:37:31.935Z,78.68
2019-02-26T15:41:34.368Z,78.73
2019-02-26T15:45:36.788Z,79.18
2019-02-26T15:49:39.304Z,78.87
2019-02-26T15:53:41.878Z,78.97
2019-02-26T15:57:44.235Z,78.73
2019-02-26T16:01:46.952Z,78.51
2019-02-26T16:05:49.769Z,78.77
2019-02-26T16:09:52.507Z,78.57
2019-02-26T16:13:54.837Z,78.35
2019-02-26T16:17:58.950Z,78.43
2019-02-26T16:22:01.351Z,78.68
2019-02-26T16:26:05.635Z,78.79
2019-02-26T16:30:18.753Z,78.46
2019-02-26T16:34:21.577Z,78.87
2019-02-26T16:38:26.492Z,78.97
2019-02-26T16:42:30.410Z,79.11
2019-02-26T16:46:33.049Z,78.88
2019-02-26T16:50:35.574Z,79.03
2019-02-26T16:54:38.652Z,78.99
2019-02-26T16:58:42.227Z,78.89
2019-02-26T17:02:44.962Z,79.12
2019-02-26T17:06:47.443Z,78.84
2019-02-26T17:10:50.970Z,78.67
2019-02-26T17:15:00.833Z,78.90
2019-02-26T17:19:03.484Z,78.95
2019-02-26T17:23:06.573Z,79.40
2019-02-26T17:27:09.427Z,79.71
2019-02-26T17:31:11.956Z,80.00
2019-02-26T17:35:14.927Z,80.37
2019-02-26T17:39:17.399Z,80.58
2019-02-26T17:43:20.389Z,80.67
2019-02-26T17:47:22.989Z,81.34
2019-02-26T17:51:25.357Z,81.18
2019-02-26T17:55:28.237Z,81.18
2019-02-26T17:59:31.541Z,81.03
2019-02-26T18:03:33.962Z,81.30
2019-02-26T18:07:38.377Z,81.50
2019-02-26T18:11:40.467Z,82.77
2019-02-26T18:15:57.281Z,82.77
2019-02-26T18:20:01.979Z,83.43
2019-02-26T18:24:05.912Z,83.87
2019-02-26T18:28:08.837Z,84.03
2019-02-26T18:32:12.685Z,84.86
2019-02-26T18:36:15.257Z,85.07
2019-02-26T18:40:17.860Z,85.50
2019-02-26T18:44:21.782Z,85.78
2019-02-26T18:48:24.249Z,86.17
2019-02-26T18:52:26.723Z,85.98
2019-02-26T18:56:29.151Z,86.39
2019-02-26T19:00:32.065Z,86.76
2019-02-26T19:04:34.498Z,86.92
2019-02-26T19:08:39.149Z,87.06
2019-02-26T19:12:41.666Z,87.27
2019-02-26T19:16:44.261Z,87.27
2019-02-26T19:20:49.710Z,87.41
2019-02-26T19:24:52.907Z,88.08
2019-02-26T19:28:56.795Z,87.90
2019-02-26T19:33:03.584Z,88.25
2019-02-26T19:37:06.607Z,88.25
2019-02-26T19:41:13.175Z,88.22
2019-02-26T19:45:16.023Z,88.54
2019-02-26T19:49:18.464Z,88.36
2019-02-26T19:53:20.794Z,88.42
2019-02-26T19:57:24.775Z,88.43
2019-02-26T20:01:27.173Z,88.61
2019-02-26T20:05:30.508Z,88.64
2019-02-26T20:09:33.043Z,88.63
2019-02-26T20:13:41.937Z,88.79
2019-02-26T20:17:40.403Z,89.00
2019-02-26T20:21:43.033Z,88.94
2019-02-26T20:25:46.910Z,89.03
2019-02-26T20:29:50.274Z,89.23
2019-02-26T20:33:52.820Z,89.09
2019-02-26T20:37:58.651Z,89.22
2019-02-26T20:41:59.585Z,89.29
2019-02-26T20:46:02.212Z,89.32
2019-02-26T20:50:05.822Z,89.37
2019-02-26T20:54:11.411Z,89.62
2019-02-26T20:58:13.172Z,89.59
2019-02-26T21:02:16.121Z,89.52
2019-02-26T21:06:18.649Z,89.71
2019-02-26T21:10:21.553Z,89.64
2019-02-26T21:14:24.192Z,89.62
2019-02-26T21:18:30.538Z,89.76
2019-02-26T21:22:30.961Z,89.88
2019-02-26T21:26:33.843Z,89.93
2019-02-26T21:30:36.337Z,89.99
2019-02-26T21:34:39.280Z,89.95
2019-02-26T21:38:41.612Z,89.86
2019-02-26T21:42:44.208Z,89.68
2019-02-26T21:46:46.573Z,89.89
2019-02-26T21:50:49.021Z,89.88
2019-02-26T21:54:51.578Z,89.97
2019-02-26T21:58:54.202Z,89.97
2019-02-26T22:02:56.594Z,89.99
2019-02-26T22:06:59.028Z,89.96
2019-02-26T22:11:01.901Z,90.10
2019-02-26T22:15:04.421Z,90.12
2019-02-26T22:19:08.290Z,90.18
2019-02-26T22:23:10.716Z,90.23
2019-02-26T22:27:13.080Z,90.32
2019-02-26T22:31:15.538Z,90.27
2019-02-26T22:35:19.027Z,90.26
2019-02-26T22:39:22.651Z,90.42
2019-02-26T22:43:25.565Z,90.44
2019-02-26T22:47:27.990Z,90.34
2019-02-26T22:51:30.808Z,90.34
2019-02-26T22:55:33.283Z,90.12
2019-02-26T22:59:35.625Z,90.17
2019-02-26T23:03:38.514Z,90.27
2019-02-26T23:07:44.378Z,90.29
2019-02-26T23:11:47.033Z,90.28
2019-02-26T23:15:50.319Z,90.36
2019-02-26T23:19:53.426Z,90.34
2019-02-26T23:23:56.163Z,90.32
2019-02-26T23:27:59.110Z,90.34
2019-02-26T23:32:03.759Z,90.36
2019-02-26T23:36:07.292Z,90.35
2019-02-26T23:40:10.273Z,90.39
2019-02-26T23:44:17.756Z,90.43
2019-02-26T23:48:19.966Z,90.42
2019-02-26T23:52:24.861Z,90.44
2019-02-26T23:56:26.437Z,90.43
